sensor_id;sensor_type;location;lat;lon;timestamp;temperature;humidity
42141;DHT22;27809;51.864;5.646;2023-07-13T00:02:23;14.60;99.90
42141;DHT22;27809;51.864;5.646;2023-07-13T00:04:48;14.40;99.90
42141;DHT22;27809;51.864;5.646;2023-07-13T00:07:14;14.40;99.90
42141;DHT22;27809;51.864;5.646;2023-07-13T00:09:40;14.40;99.90
42141;DHT22;27809;51.864;5.646;2023-07-13T00:12:34;14.40;99.90
42141;DHT22;27809;51.864;5.646;2023-07-13T00:15:04;14.30;99.90
42141;DHT22;27809;51.864;5.646;2023-07-13T00:17:30;14.30;99.90
42141;DHT22;27809;51.864;5.646;2023-07-13T00:19:57;14.30;99.90
42141;DHT22;27809;51.864;5.646;2023-07-13T00:22:23;14.30;99.90
42141;DHT22;27809;51.864;5.646;2023-07-13T00:24:52;14.30;99.90
42141;DHT22;27809;51.864;5.646;2023-07-13T00:27:18;14.30;99.90
42141;DHT22;27809;51.864;5.646;2023-07-13T00:29:43;14.20;99.90
42141;DHT22;27809;51.864;5.646;2023-07-13T00:32:10;14.20;99.90
42141;DHT22;27809;51.864;5.646;2023-07-13T00:34:37;14.20;99.90
42141;DHT22;27809;51.864;5.646;2023-07-13T00:37:03;14.10;99.90
42141;DHT22;27809;51.864;5.646;2023-07-13T00:39:28;14.10;99.90
42141;DHT22;27809;51.864;5.646;2023-07-13T00:41:54;14.10;99.90
42141;DHT22;27809;51.864;5.646;2023-07-13T00:44:20;14.10;99.90
42141;DHT22;27809;51.864;5.646;2023-07-13T00:46:48;14.10;99.90
42141;DHT22;27809;51.864;5.646;2023-07-13T00:49:18;14.00;99.90
42141;DHT22;27809;51.864;5.646;2023-07-13T00:54:15;14.00;99.90
42141;DHT22;27809;51.864;5.646;2023-07-13T00:56:43;14.00;99.90
42141;DHT22;27809;51.864;5.646;2023-07-13T00:59:10;14.00;99.90
42141;DHT22;27809;51.864;5.646;2023-07-13T01:01:37;13.90;99.90
42141;DHT22;27809;51.864;5.646;2023-07-13T01:04:03;13.90;99.90
42141;DHT22;27809;51.864;5.646;2023-07-13T01:06:29;13.90;99.90
42141;DHT22;27809;51.864;5.646;2023-07-13T01:08:56;13.90;99.90
42141;DHT22;27809;51.864;5.646;2023-07-13T01:11:23;13.90;99.90
42141;DHT22;27809;51.864;5.646;2023-07-13T01:13:49;13.80;99.90
42141;DHT22;27809;51.864;5.646;2023-07-13T01:16:19;13.80;99.90
42141;DHT22;27809;51.864;5.646;2023-07-13T01:18:47;13.90;99.90
42141;DHT22;27809;51.864;5.646;2023-07-13T01:21:12;13.80;99.90
42141;DHT22;27809;51.864;5.646;2023-07-13T01:23:38;13.70;99.90
42141;DHT22;27809;51.864;5.646;2023-07-13T01:26:03;13.80;99.90
42141;DHT22;27809;51.864;5.646;2023-07-13T01:28:30;13.70;99.90
42141;DHT22;27809;51.864;5.646;2023-07-13T01:30:58;13.60;99.90
42141;DHT22;27809;51.864;5.646;2023-07-13T01:33:25;13.80;99.90
42141;DHT22;27809;51.864;5.646;2023-07-13T01:35:50;13.80;99.90
42141;DHT22;27809;51.864;5.646;2023-07-13T01:38:18;13.80;99.90
42141;DHT22;27809;51.864;5.646;2023-07-13T01:40:44;13.60;99.90
42141;DHT22;27809;51.864;5.646;2023-07-13T01:43:10;13.50;99.90
42141;DHT22;27809;51.864;5.646;2023-07-13T01:45:36;13.60;99.90
42141;DHT22;27809;51.864;5.646;2023-07-13T01:48:01;13.50;99.90
42141;DHT22;27809;51.864;5.646;2023-07-13T01:50:27;13.50;99.90
42141;DHT22;27809;51.864;5.646;2023-07-13T01:52:53;13.50;99.90
42141;DHT22;27809;51.864;5.646;2023-07-13T01:55:20;13.60;99.90
42141;DHT22;27809;51.864;5.646;2023-07-13T01:57:45;13.70;99.90
42141;DHT22;27809;51.864;5.646;2023-07-13T02:00:13;13.80;99.90
42141;DHT22;27809;51.864;5.646;2023-07-13T02:02:39;13.80;99.90
42141;DHT22;27809;51.864;5.646;2023-07-13T02:05:05;13.80;99.90
42141;DHT22;27809;51.864;5.646;2023-07-13T02:07:31;13.60;99.90
42141;DHT22;27809;51.864;5.646;2023-07-13T02:09:56;13.50;99.90
42141;DHT22;27809;51.864;5.646;2023-07-13T02:12:22;13.50;99.90
42141;DHT22;27809;51.864;5.646;2023-07-13T02:14:47;13.50;99.90
42141;DHT22;27809;51.864;5.646;2023-07-13T02:17:13;13.50;99.90
42141;DHT22;27809;51.864;5.646;2023-07-13T02:19:39;13.40;99.90
42141;DHT22;27809;51.864;5.646;2023-07-13T02:22:04;13.30;99.90
42141;DHT22;27809;51.864;5.646;2023-07-13T02:24:30;13.30;99.90
42141;DHT22;27809;51.864;5.646;2023-07-13T02:26:56;13.20;99.90
42141;DHT22;27809;51.864;5.646;2023-07-13T02:29:21;13.30;99.90
42141;DHT22;27809;51.864;5.646;2023-07-13T02:31:47;13.30;99.90
42141;DHT22;27809;51.864;5.646;2023-07-13T02:34:12;13.30;99.90
42141;DHT22;27809;51.864;5.646;2023-07-13T02:36:38;13.30;99.90
42141;DHT22;27809;51.864;5.646;2023-07-13T02:39:05;13.40;99.90
42141;DHT22;27809;51.864;5.646;2023-07-13T02:41:31;13.40;99.90
42141;DHT22;27809;51.864;5.646;2023-07-13T02:43:58;13.30;99.90
42141;DHT22;27809;51.864;5.646;2023-07-13T02:46:30;13.20;99.90
42141;DHT22;27809;51.864;5.646;2023-07-13T02:48:55;13.30;99.90
42141;DHT22;27809;51.864;5.646;2023-07-13T02:51:21;13.30;99.90
42141;DHT22;27809;51.864;5.646;2023-07-13T02:53:46;13.20;99.90
42141;DHT22;27809;51.864;5.646;2023-07-13T02:56:12;13.40;99.90
42141;DHT22;27809;51.864;5.646;2023-07-13T02:58:38;13.30;99.90
42141;DHT22;27809;51.864;5.646;2023-07-13T03:01:12;13.30;99.90
42141;DHT22;27809;51.864;5.646;2023-07-13T03:03:38;13.40;99.90
42141;DHT22;27809;51.864;5.646;2023-07-13T03:06:04;13.50;99.90
42141;DHT22;27809;51.864;5.646;2023-07-13T03:08:31;13.30;99.90
42141;DHT22;27809;51.864;5.646;2023-07-13T03:11:05;13.40;99.90
42141;DHT22;27809;51.864;5.646;2023-07-13T03:13:31;13.30;99.90
42141;DHT22;27809;51.864;5.646;2023-07-13T03:15:57;13.20;99.90
42141;DHT22;27809;51.864;5.646;2023-07-13T03:18:23;13.30;99.90
42141;DHT22;27809;51.864;5.646;2023-07-13T03:20:52;13.30;99.90
42141;DHT22;27809;51.864;5.646;2023-07-13T03:23:18;13.30;99.90
42141;DHT22;27809;51.864;5.646;2023-07-13T03:25:44;13.40;99.90
42141;DHT22;27809;51.864;5.646;2023-07-13T03:28:11;13.30;99.90
42141;DHT22;27809;51.864;5.646;2023-07-13T03:30:37;13.20;99.90
42141;DHT22;27809;51.864;5.646;2023-07-13T03:33:03;13.30;99.90
42141;DHT22;27809;51.864;5.646;2023-07-13T03:35:28;13.30;99.90
42141;DHT22;27809;51.864;5.646;2023-07-13T03:37:54;13.30;99.90
42141;DHT22;27809;51.864;5.646;2023-07-13T03:40:20;13.30;99.90
42141;DHT22;27809;51.864;5.646;2023-07-13T03:42:46;13.30;99.90
42141;DHT22;27809;51.864;5.646;2023-07-13T03:45:12;13.20;99.90
42141;DHT22;27809;51.864;5.646;2023-07-13T03:47:37;13.10;99.90
42141;DHT22;27809;51.864;5.646;2023-07-13T03:50:03;13.20;99.90
42141;DHT22;27809;51.864;5.646;2023-07-13T03:52:29;13.30;99.90
42141;DHT22;27809;51.864;5.646;2023-07-13T03:54:55;13.30;99.90
42141;DHT22;27809;51.864;5.646;2023-07-13T03:57:20;13.40;99.90
42141;DHT22;27809;51.864;5.646;2023-07-13T03:59:46;13.30;99.90
42141;DHT22;27809;51.864;5.646;2023-07-13T04:02:11;13.30;99.90
42141;DHT22;27809;51.864;5.646;2023-07-13T04:04:37;13.20;99.90
42141;DHT22;27809;51.864;5.646;2023-07-13T04:07:06;13.30;99.90
42141;DHT22;27809;51.864;5.646;2023-07-13T04:09:33;13.20;99.90
42141;DHT22;27809;51.864;5.646;2023-07-13T04:11:59;13.30;99.90
42141;DHT22;27809;51.864;5.646;2023-07-13T04:14:25;13.30;99.90
42141;DHT22;27809;51.864;5.646;2023-07-13T04:16:50;13.30;99.90
42141;DHT22;27809;51.864;5.646;2023-07-13T04:19:17;13.30;99.90
42141;DHT22;27809;51.864;5.646;2023-07-13T04:21:42;13.50;99.90
42141;DHT22;27809;51.864;5.646;2023-07-13T04:24:08;13.40;99.90
42141;DHT22;27809;51.864;5.646;2023-07-13T04:26:34;13.50;99.90
42141;DHT22;27809;51.864;5.646;2023-07-13T04:29:01;13.60;99.90
42141;DHT22;27809;51.864;5.646;2023-07-13T04:31:29;13.70;99.90
42141;DHT22;27809;51.864;5.646;2023-07-13T04:33:55;13.60;99.90
42141;DHT22;27809;51.864;5.646;2023-07-13T04:36:20;13.80;99.90
42141;DHT22;27809;51.864;5.646;2023-07-13T04:38:46;13.90;99.90
42141;DHT22;27809;51.864;5.646;2023-07-13T04:41:13;13.90;99.90
42141;DHT22;27809;51.864;5.646;2023-07-13T04:43:40;14.00;99.90
42141;DHT22;27809;51.864;5.646;2023-07-13T04:46:07;13.90;99.90
42141;DHT22;27809;51.864;5.646;2023-07-13T04:48:33;14.00;99.90
42141;DHT22;27809;51.864;5.646;2023-07-13T04:50:59;14.00;99.90
42141;DHT22;27809;51.864;5.646;2023-07-13T04:53:25;14.10;99.90
42141;DHT22;27809;51.864;5.646;2023-07-13T04:55:52;14.20;99.90
42141;DHT22;27809;51.864;5.646;2023-07-13T04:58:17;14.40;99.90
42141;DHT22;27809;51.864;5.646;2023-07-13T05:00:43;14.50;99.90
42141;DHT22;27809;51.864;5.646;2023-07-13T05:03:09;14.50;99.90
42141;DHT22;27809;51.864;5.646;2023-07-13T05:05:35;14.60;99.90
42141;DHT22;27809;51.864;5.646;2023-07-13T05:08:00;14.70;99.90
42141;DHT22;27809;51.864;5.646;2023-07-13T05:10:26;14.80;99.90
42141;DHT22;27809;51.864;5.646;2023-07-13T05:12:52;14.80;99.90
42141;DHT22;27809;51.864;5.646;2023-07-13T05:15:17;14.90;99.90
42141;DHT22;27809;51.864;5.646;2023-07-13T05:17:47;14.90;99.90
42141;DHT22;27809;51.864;5.646;2023-07-13T05:20:13;15.10;99.90
42141;DHT22;27809;51.864;5.646;2023-07-13T05:22:38;15.00;99.90
42141;DHT22;27809;51.864;5.646;2023-07-13T05:25:05;15.10;99.90
42141;DHT22;27809;51.864;5.646;2023-07-13T05:27:31;15.10;99.90
42141;DHT22;27809;51.864;5.646;2023-07-13T05:29:57;15.30;99.90
42141;DHT22;27809;51.864;5.646;2023-07-13T05:32:22;15.30;99.90
42141;DHT22;27809;51.864;5.646;2023-07-13T05:34:48;15.30;99.90
42141;DHT22;27809;51.864;5.646;2023-07-13T05:37:14;15.30;99.90
42141;DHT22;27809;51.864;5.646;2023-07-13T05:39:39;15.50;99.90
42141;DHT22;27809;51.864;5.646;2023-07-13T05:42:05;15.60;99.90
42141;DHT22;27809;51.864;5.646;2023-07-13T05:44:31;15.70;99.90
42141;DHT22;27809;51.864;5.646;2023-07-13T05:46:57;15.70;99.90
42141;DHT22;27809;51.864;5.646;2023-07-13T05:49:23;15.70;99.90
42141;DHT22;27809;51.864;5.646;2023-07-13T05:51:48;15.80;99.90
42141;DHT22;27809;51.864;5.646;2023-07-13T05:54:14;15.90;99.90
42141;DHT22;27809;51.864;5.646;2023-07-13T05:56:40;16.60;99.90
42141;DHT22;27809;51.864;5.646;2023-07-13T05:59:06;16.30;99.90
42141;DHT22;27809;51.864;5.646;2023-07-13T06:01:31;16.20;99.90
42141;DHT22;27809;51.864;5.646;2023-07-13T06:03:57;16.40;99.90
42141;DHT22;27809;51.864;5.646;2023-07-13T06:06:23;16.60;99.90
42141;DHT22;27809;51.864;5.646;2023-07-13T06:08:48;16.50;99.90
42141;DHT22;27809;51.864;5.646;2023-07-13T06:11:17;16.40;99.90
42141;DHT22;27809;51.864;5.646;2023-07-13T06:13:43;16.40;99.90
42141;DHT22;27809;51.864;5.646;2023-07-13T06:16:09;16.50;99.90
42141;DHT22;27809;51.864;5.646;2023-07-13T06:18:36;16.70;99.90
42141;DHT22;27809;51.864;5.646;2023-07-13T06:21:09;16.70;99.90
42141;DHT22;27809;51.864;5.646;2023-07-13T06:23:36;16.70;99.90
42141;DHT22;27809;51.864;5.646;2023-07-13T06:26:02;16.80;99.90
42141;DHT22;27809;51.864;5.646;2023-07-13T06:28:29;16.80;99.90
42141;DHT22;27809;51.864;5.646;2023-07-13T06:30:55;16.90;99.90
42141;DHT22;27809;51.864;5.646;2023-07-13T06:33:21;16.90;99.90
42141;DHT22;27809;51.864;5.646;2023-07-13T06:35:46;17.00;99.90
42141;DHT22;27809;51.864;5.646;2023-07-13T06:38:12;17.10;99.90
42141;DHT22;27809;51.864;5.646;2023-07-13T06:40:37;17.10;99.90
42141;DHT22;27809;51.864;5.646;2023-07-13T06:43:03;17.10;99.90
42141;DHT22;27809;51.864;5.646;2023-07-13T06:45:28;17.20;99.90
42141;DHT22;27809;51.864;5.646;2023-07-13T06:47:54;17.20;99.90
42141;DHT22;27809;51.864;5.646;2023-07-13T06:50:20;17.20;99.90
42141;DHT22;27809;51.864;5.646;2023-07-13T06:52:46;17.30;99.90
42141;DHT22;27809;51.864;5.646;2023-07-13T06:55:11;18.70;97.10
42141;DHT22;27809;51.864;5.646;2023-07-13T06:57:37;19.20;69.70
42141;DHT22;27809;51.864;5.646;2023-07-13T07:00:03;18.50;84.10
42141;DHT22;27809;51.864;5.646;2023-07-13T07:02:28;17.80;99.40
42141;DHT22;27809;51.864;5.646;2023-07-13T07:04:54;17.50;99.90
42141;DHT22;27809;51.864;5.646;2023-07-13T07:07:20;17.50;99.90
42141;DHT22;27809;51.864;5.646;2023-07-13T07:09:48;17.70;99.90
42141;DHT22;27809;51.864;5.646;2023-07-13T07:12:14;17.90;99.90
42141;DHT22;27809;51.864;5.646;2023-07-13T07:14:39;19.10;85.50
42141;DHT22;27809;51.864;5.646;2023-07-13T07:17:05;18.30;94.40
42141;DHT22;27809;51.864;5.646;2023-07-13T07:19:30;18.10;99.90
42141;DHT22;27809;51.864;5.646;2023-07-13T07:21:56;18.10;99.90
42141;DHT22;27809;51.864;5.646;2023-07-13T07:24:22;18.00;99.90
42141;DHT22;27809;51.864;5.646;2023-07-13T07:26:47;18.00;99.90
42141;DHT22;27809;51.864;5.646;2023-07-13T07:29:13;18.10;99.90
42141;DHT22;27809;51.864;5.646;2023-07-13T07:31:38;18.00;99.90
42141;DHT22;27809;51.864;5.646;2023-07-13T07:34:04;18.20;99.90
42141;DHT22;27809;51.864;5.646;2023-07-13T07:36:30;18.30;95.60
42141;DHT22;27809;51.864;5.646;2023-07-13T07:38:56;18.60;96.00
42141;DHT22;27809;51.864;5.646;2023-07-13T07:41:22;18.90;93.70
42141;DHT22;27809;51.864;5.646;2023-07-13T07:43:47;19.10;89.80
42141;DHT22;27809;51.864;5.646;2023-07-13T07:46:13;19.10;87.30
42141;DHT22;27809;51.864;5.646;2023-07-13T07:48:39;19.00;88.30
42141;DHT22;27809;51.864;5.646;2023-07-13T07:51:04;19.20;90.70
42141;DHT22;27809;51.864;5.646;2023-07-13T07:53:30;19.00;86.80
42141;DHT22;27809;51.864;5.646;2023-07-13T07:55:56;18.90;89.50
42141;DHT22;27809;51.864;5.646;2023-07-13T07:58:21;20.70;40.70
42141;DHT22;27809;51.864;5.646;2023-07-13T08:00:47;20.00;52.20
42141;DHT22;27809;51.864;5.646;2023-07-13T08:03:13;19.60;66.00
42141;DHT22;27809;51.864;5.646;2023-07-13T08:05:38;19.80;72.90
42141;DHT22;27809;51.864;5.646;2023-07-13T08:08:04;19.70;69.90
42141;DHT22;27809;51.864;5.646;2023-07-13T08:10:30;19.60;67.70
42141;DHT22;27809;51.864;5.646;2023-07-13T08:12:55;19.80;71.20
42141;DHT22;27809;51.864;5.646;2023-07-13T08:15:21;20.00;55.80
42141;DHT22;27809;51.864;5.646;2023-07-13T08:17:48;20.20;54.00
42141;DHT22;27809;51.864;5.646;2023-07-13T08:20:14;20.20;51.00
42141;DHT22;27809;51.864;5.646;2023-07-13T08:22:40;20.30;50.80
42141;DHT22;27809;51.864;5.646;2023-07-13T08:25:06;19.80;51.30
42141;DHT22;27809;51.864;5.646;2023-07-13T08:27:32;19.70;54.60
42141;DHT22;27809;51.864;5.646;2023-07-13T08:29:58;20.40;57.40
42141;DHT22;27809;51.864;5.646;2023-07-13T08:32:24;21.70;24.30
42141;DHT22;27809;51.864;5.646;2023-07-13T08:34:50;21.10;23.70
42141;DHT22;27809;51.864;5.646;2023-07-13T08:37:16;20.80;19.90
42141;DHT22;27809;51.864;5.646;2023-07-13T08:39:43;21.00;21.60
42141;DHT22;27809;51.864;5.646;2023-07-13T08:45:52;20.90;26.80
42141;DHT22;27809;51.864;5.646;2023-07-13T08:50:31;21.30;8.20
42141;DHT22;27809;51.864;5.646;2023-07-13T08:53:01;21.70;11.80
42141;DHT22;27809;51.864;5.646;2023-07-13T08:55:31;22.00;1.00
42141;DHT22;27809;51.864;5.646;2023-07-13T08:58:15;22.60;1.00
42141;DHT22;27809;51.864;5.646;2023-07-13T09:00:52;23.10;1.00
42141;DHT22;27809;51.864;5.646;2023-07-13T09:03:23;22.60;1.00
42141;DHT22;27809;51.864;5.646;2023-07-13T09:05:58;22.20;1.00
42141;DHT22;27809;51.864;5.646;2023-07-13T09:08:48;22.10;1.00
42141;DHT22;27809;51.864;5.646;2023-07-13T09:16:17;21.10;1.00
42141;DHT22;27809;51.864;5.646;2023-07-13T09:18:58;20.60;34.90
42141;DHT22;27809;51.864;5.646;2023-07-13T09:21:34;19.10;98.50
42141;DHT22;27809;51.864;5.646;2023-07-13T09:26:59;18.00;99.90
42141;DHT22;27809;51.864;5.646;2023-07-13T09:29:34;17.90;99.90
42141;DHT22;27809;51.864;5.646;2023-07-13T09:32:06;18.00;99.90
42141;DHT22;27809;51.864;5.646;2023-07-13T09:34:33;18.00;99.90
42141;DHT22;27809;51.864;5.646;2023-07-13T09:36:59;18.10;99.90
42141;DHT22;27809;51.864;5.646;2023-07-13T09:44:33;18.30;99.90
42141;DHT22;27809;51.864;5.646;2023-07-13T09:46:59;19.00;99.90
42141;DHT22;27809;51.864;5.646;2023-07-13T09:49:29;19.90;99.90
42141;DHT22;27809;51.864;5.646;2023-07-13T09:52:11;19.40;99.90
42141;DHT22;27809;51.864;5.646;2023-07-13T09:54:38;19.10;99.90
42141;DHT22;27809;51.864;5.646;2023-07-13T09:57:15;18.70;99.90
42141;DHT22;27809;51.864;5.646;2023-07-13T09:59:45;18.60;99.90
42141;DHT22;27809;51.864;5.646;2023-07-13T10:07:24;20.10;99.90
42141;DHT22;27809;51.864;5.646;2023-07-13T10:09:59;20.70;99.90
42141;DHT22;27809;51.864;5.646;2023-07-13T10:12:27;21.10;99.90
42141;DHT22;27809;51.864;5.646;2023-07-13T10:14:55;21.30;97.50
42141;DHT22;27809;51.864;5.646;2023-07-13T10:17:29;21.70;99.90
42141;DHT22;27809;51.864;5.646;2023-07-13T10:20:04;20.70;69.60
42141;DHT22;27809;51.864;5.646;2023-07-13T10:22:51;20.00;82.20
42141;DHT22;27809;51.864;5.646;2023-07-13T10:25:23;19.50;99.90
42141;DHT22;27809;51.864;5.646;2023-07-13T10:27:52;19.40;99.90
42141;DHT22;27809;51.864;5.646;2023-07-13T10:30:24;19.30;99.90
42141;DHT22;27809;51.864;5.646;2023-07-13T10:32:53;19.20;95.20
42141;DHT22;27809;51.864;5.646;2023-07-13T10:35:21;19.10;99.90
42141;DHT22;27809;51.864;5.646;2023-07-13T10:37:51;19.10;99.90
42141;DHT22;27809;51.864;5.646;2023-07-13T10:40:26;19.20;99.90
42141;DHT22;27809;51.864;5.646;2023-07-13T10:42:54;19.40;99.90
42141;DHT22;27809;51.864;5.646;2023-07-13T10:45:23;19.70;74.80
42141;DHT22;27809;51.864;5.646;2023-07-13T10:47:51;19.70;78.60
42141;DHT22;27809;51.864;5.646;2023-07-13T10:50:24;19.50;75.80
42141;DHT22;27809;51.864;5.646;2023-07-13T10:52:54;19.50;83.90
42141;DHT22;27809;51.864;5.646;2023-07-13T10:55:41;19.40;73.40
42141;DHT22;27809;51.864;5.646;2023-07-13T11:04:00;19.40;93.00
42141;DHT22;27809;51.864;5.646;2023-07-13T11:08:57;19.00;96.60
42141;DHT22;27809;51.864;5.646;2023-07-13T11:11:33;19.20;99.90
42141;DHT22;27809;51.864;5.646;2023-07-13T11:14:00;19.20;99.00
42141;DHT22;27809;51.864;5.646;2023-07-13T11:16:42;19.50;98.00
42141;DHT22;27809;51.864;5.646;2023-07-13T11:24:58;20.60;72.30
42141;DHT22;27809;51.864;5.646;2023-07-13T11:30:25;20.90;44.60
42141;DHT22;27809;51.864;5.646;2023-07-13T11:33:13;21.30;31.50
42141;DHT22;27809;51.864;5.646;2023-07-13T11:36:02;21.10;28.40
42141;DHT22;27809;51.864;5.646;2023-07-13T11:41:31;20.90;30.90
42141;DHT22;27809;51.864;5.646;2023-07-13T11:44:15;20.90;33.00
42141;DHT22;27809;51.864;5.646;2023-07-13T11:46:50;21.20;20.30
42141;DHT22;27809;51.864;5.646;2023-07-13T11:49:21;21.60;17.00
42141;DHT22;27809;51.864;5.646;2023-07-13T11:51:47;21.70;14.80
42141;DHT22;27809;51.864;5.646;2023-07-13T11:56:52;21.90;18.00
42141;DHT22;27809;51.864;5.646;2023-07-13T11:59:19;21.90;14.90
42141;DHT22;27809;51.864;5.646;2023-07-13T12:01:55;21.90;16.20
42141;DHT22;27809;51.864;5.646;2023-07-13T12:04:27;21.70;13.70
42141;DHT22;27809;51.864;5.646;2023-07-13T12:07:17;21.30;18.10
42141;DHT22;27809;51.864;5.646;2023-07-13T12:09:43;21.50;29.90
42141;DHT22;27809;51.864;5.646;2023-07-13T12:12:13;22.10;26.30
42141;DHT22;27809;51.864;5.646;2023-07-13T12:14:40;22.20;27.30
42141;DHT22;27809;51.864;5.646;2023-07-13T12:17:21;21.70;13.90
42141;DHT22;27809;51.864;5.646;2023-07-13T12:19:51;21.60;1.00
42141;DHT22;27809;51.864;5.646;2023-07-13T12:22:18;22.00;1.00
42141;DHT22;27809;51.864;5.646;2023-07-13T12:24:45;22.30;1.00
42141;DHT22;27809;51.864;5.646;2023-07-13T12:27:37;22.70;1.00
42141;DHT22;27809;51.864;5.646;2023-07-13T12:30:15;22.80;1.00
42141;DHT22;27809;51.864;5.646;2023-07-13T12:32:58;22.50;1.00
42141;DHT22;27809;51.864;5.646;2023-07-13T12:35:24;21.70;1.00
42141;DHT22;27809;51.864;5.646;2023-07-13T12:37:51;22.00;1.00
42141;DHT22;27809;51.864;5.646;2023-07-13T12:40:20;22.10;1.00
42141;DHT22;27809;51.864;5.646;2023-07-13T12:42:49;22.50;1.00
42141;DHT22;27809;51.864;5.646;2023-07-13T12:45:27;22.70;1.00
42141;DHT22;27809;51.864;5.646;2023-07-13T12:47:59;22.20;1.00
42141;DHT22;27809;51.864;5.646;2023-07-13T12:50:34;22.50;1.00
42141;DHT22;27809;51.864;5.646;2023-07-13T12:53:05;22.60;1.00
42141;DHT22;27809;51.864;5.646;2023-07-13T12:55:44;23.10;1.00
42141;DHT22;27809;51.864;5.646;2023-07-13T12:58:20;22.80;1.00
42141;DHT22;27809;51.864;5.646;2023-07-13T13:00:50;22.60;1.00
42141;DHT22;27809;51.864;5.646;2023-07-13T13:03:21;22.60;1.00
42141;DHT22;27809;51.864;5.646;2023-07-13T13:05:47;22.70;1.00
42141;DHT22;27809;51.864;5.646;2023-07-13T13:08:15;22.50;1.00
42141;DHT22;27809;51.864;5.646;2023-07-13T13:10:41;22.40;1.00
42141;DHT22;27809;51.864;5.646;2023-07-13T13:13:06;22.40;1.00
42141;DHT22;27809;51.864;5.646;2023-07-13T13:15:33;22.40;1.00
42141;DHT22;27809;51.864;5.646;2023-07-13T13:17:59;22.90;1.00
42141;DHT22;27809;51.864;5.646;2023-07-13T13:20:25;23.30;1.00
42141;DHT22;27809;51.864;5.646;2023-07-13T13:22:53;23.00;1.00
42141;DHT22;27809;51.864;5.646;2023-07-13T13:25:20;23.00;1.00
42141;DHT22;27809;51.864;5.646;2023-07-13T13:27:46;23.60;1.00
42141;DHT22;27809;51.864;5.646;2023-07-13T13:30:14;23.70;1.00
42141;DHT22;27809;51.864;5.646;2023-07-13T13:32:42;23.50;1.00
42141;DHT22;27809;51.864;5.646;2023-07-13T13:35:20;23.90;1.00
42141;DHT22;27809;51.864;5.646;2023-07-13T13:37:47;23.20;1.00
42141;DHT22;27809;51.864;5.646;2023-07-13T13:40:19;23.50;1.00
42141;DHT22;27809;51.864;5.646;2023-07-13T13:42:45;24.10;1.00
42141;DHT22;27809;51.864;5.646;2023-07-13T13:45:11;24.10;1.00
42141;DHT22;27809;51.864;5.646;2023-07-13T13:47:43;23.60;1.00
42141;DHT22;27809;51.864;5.646;2023-07-13T13:52:40;23.00;1.00
42141;DHT22;27809;51.864;5.646;2023-07-13T13:55:18;23.10;1.00
42141;DHT22;27809;51.864;5.646;2023-07-13T13:57:45;23.50;1.00
42141;DHT22;27809;51.864;5.646;2023-07-13T14:00:11;24.00;1.00
42141;DHT22;27809;51.864;5.646;2023-07-13T14:02:40;23.80;1.00
42141;DHT22;27809;51.864;5.646;2023-07-13T14:05:09;22.90;1.00
42141;DHT22;27809;51.864;5.646;2023-07-13T14:07:37;22.80;1.00
42141;DHT22;27809;51.864;5.646;2023-07-13T14:10:14;23.00;1.00
42141;DHT22;27809;51.864;5.646;2023-07-13T14:12:41;23.50;1.00
42141;DHT22;27809;51.864;5.646;2023-07-13T14:15:21;23.20;1.00
42141;DHT22;27809;51.864;5.646;2023-07-13T14:17:47;23.20;1.00
42141;DHT22;27809;51.864;5.646;2023-07-13T14:20:16;23.40;1.00
42141;DHT22;27809;51.864;5.646;2023-07-13T14:22:42;23.70;1.00
42141;DHT22;27809;51.864;5.646;2023-07-13T14:25:11;23.70;1.00
42141;DHT22;27809;51.864;5.646;2023-07-13T14:27:38;24.10;1.00
42141;DHT22;27809;51.864;5.646;2023-07-13T14:30:13;23.90;1.00
42141;DHT22;27809;51.864;5.646;2023-07-13T14:32:39;23.60;1.00
42141;DHT22;27809;51.864;5.646;2023-07-13T14:35:07;23.50;1.00
42141;DHT22;27809;51.864;5.646;2023-07-13T14:37:33;23.30;1.00
42141;DHT22;27809;51.864;5.646;2023-07-13T14:39:58;22.60;1.00
42141;DHT22;27809;51.864;5.646;2023-07-13T14:42:24;22.80;1.00
42141;DHT22;27809;51.864;5.646;2023-07-13T14:44:49;22.80;1.00
42141;DHT22;27809;51.864;5.646;2023-07-13T14:47:15;22.60;1.00
42141;DHT22;27809;51.864;5.646;2023-07-13T14:49:44;22.90;1.00
42141;DHT22;27809;51.864;5.646;2023-07-13T14:52:14;23.30;1.00
42141;DHT22;27809;51.864;5.646;2023-07-13T14:54:40;23.00;1.00
42141;DHT22;27809;51.864;5.646;2023-07-13T14:57:16;22.70;1.00
42141;DHT22;27809;51.864;5.646;2023-07-13T14:59:42;22.70;1.00
42141;DHT22;27809;51.864;5.646;2023-07-13T15:04:46;22.60;1.00
42141;DHT22;27809;51.864;5.646;2023-07-13T15:07:12;22.90;1.00
42141;DHT22;27809;51.864;5.646;2023-07-13T15:09:41;23.10;1.00
42141;DHT22;27809;51.864;5.646;2023-07-13T15:12:07;22.60;1.00
42141;DHT22;27809;51.864;5.646;2023-07-13T15:14:32;22.70;1.00
42141;DHT22;27809;51.864;5.646;2023-07-13T15:16:58;22.70;1.00
42141;DHT22;27809;51.864;5.646;2023-07-13T15:19:25;21.90;1.00
42141;DHT22;27809;51.864;5.646;2023-07-13T15:21:52;22.10;1.00
42141;DHT22;27809;51.864;5.646;2023-07-13T15:24:20;22.20;1.00
42141;DHT22;27809;51.864;5.646;2023-07-13T15:26:47;22.30;1.00
42141;DHT22;27809;51.864;5.646;2023-07-13T15:29:15;22.40;1.00
42141;DHT22;27809;51.864;5.646;2023-07-13T15:31:41;21.00;1.00
42141;DHT22;27809;51.864;5.646;2023-07-13T15:34:15;20.50;1.00
42141;DHT22;27809;51.864;5.646;2023-07-13T15:36:41;20.60;1.00
42141;DHT22;27809;51.864;5.646;2023-07-13T15:39:08;20.50;1.00
42141;DHT22;27809;51.864;5.646;2023-07-13T15:41:38;20.60;1.00
42141;DHT22;27809;51.864;5.646;2023-07-13T15:44:30;20.60;1.00
42141;DHT22;27809;51.864;5.646;2023-07-13T15:46:57;20.60;1.00
42141;DHT22;27809;51.864;5.646;2023-07-13T15:49:23;20.60;1.00
42141;DHT22;27809;51.864;5.646;2023-07-13T15:51:49;20.50;1.00
42141;DHT22;27809;51.864;5.646;2023-07-13T15:54:17;20.60;1.00
42141;DHT22;27809;51.864;5.646;2023-07-13T15:56:43;20.70;1.00
42141;DHT22;27809;51.864;5.646;2023-07-13T15:59:11;20.70;1.60
42141;DHT22;27809;51.864;5.646;2023-07-13T16:01:40;20.70;4.10
42141;DHT22;27809;51.864;5.646;2023-07-13T16:04:08;20.70;1.00
42141;DHT22;27809;51.864;5.646;2023-07-13T16:06:39;20.70;1.00
42141;DHT22;27809;51.864;5.646;2023-07-13T16:09:06;20.70;1.00
42141;DHT22;27809;51.864;5.646;2023-07-13T16:11:35;20.40;1.00
42141;DHT22;27809;51.864;5.646;2023-07-13T16:14:01;20.40;5.00
42141;DHT22;27809;51.864;5.646;2023-07-13T16:16:29;20.30;6.20
42141;DHT22;27809;51.864;5.646;2023-07-13T16:18:56;20.30;8.20
42141;DHT22;27809;51.864;5.646;2023-07-13T16:21:27;20.60;7.50
42141;DHT22;27809;51.864;5.646;2023-07-13T16:23:54;21.30;5.10
42141;DHT22;27809;51.864;5.646;2023-07-13T16:26:32;21.60;1.00
42141;DHT22;27809;51.864;5.646;2023-07-13T16:29:19;22.10;1.00
42141;DHT22;27809;51.864;5.646;2023-07-13T16:32:14;22.30;1.00
42141;DHT22;27809;51.864;5.646;2023-07-13T16:34:42;22.40;1.00
42141;DHT22;27809;51.864;5.646;2023-07-13T16:37:20;22.20;1.00